Time;durP1;ratioP1;P1;durP2;ratioP2;P2;SDS_P1;SDS_P2;PMS_P1;PMS_P2;Temp;Humidity;BMP_temperature;BMP_pressure;BME280_temperature;BME280_humidity;BME280_pressure;Samples;Min_cycle;Max_cycle;Signal;HPM_P1;HPM_P2
2023/10/18 00:00:51;;;;;;;13.68;9.07;;;;;;;21.71;47.82;98601.06;2076010;28;20800;-64
2023/10/18 00:01:54;;;;;;;12.98;9.20;;;;;;;21.70;47.79;98602.09;2079196;28;28605;-64
2023/10/18 00:02:57;;;;;;;12.98;9.57;;;;;;;21.69;47.92;98600.44;2078281;28;20049;-64
2023/10/18 00:03:57;;;;;;;11.65;8.60;;;;;;;21.70;47.93;98599.38;2076478;28;20049;-64
2023/10/18 00:05:00;;;;;;;13.63;9.07;;;;;;;21.70;47.71;98602.09;2078387;28;20057;-64
2023/10/18 00:06:11;;;;;;;13.18;10.02;;;;;;;21.69;48.04;98595.06;2078181;28;20060;-64
2023/10/18 00:07:15;;;;;;;10.38;7.72;;;;;;;21.66;47.80;98596.31;2078365;28;20566;-64
2023/10/18 00:08:17;;;;;;;13.15;9.32;;;;;;;21.66;47.75;98596.31;2081355;28;20052;-65
2023/10/18 00:09:45;;;;;;;11.02;8.60;;;;;;;21.66;48.02;98592.81;2077871;28;20049;-65
2023/10/18 00:10:46;;;;;;;10.95;8.93;;;;;;;21.62;48.11;98595.13;2077564;28;20053;-63
2023/10/18 00:11:49;;;;;;;14.77;9.80;;;;;;;21.64;47.85;98583.03;2078850;28;20084;-64
2023/10/18 00:12:52;;;;;;;12.73;8.85;;;;;;;21.65;47.82;98591.97;2077415;28;20589;-64
2023/10/18 00:13:54;;;;;;;12.93;8.82;;;;;;;21.66;47.79;98590.09;2075741;28;20143;-63
2023/10/18 00:14:55;;;;;;;13.68;10.15;;;;;;;21.67;47.77;98586.34;2079942;28;20053;-64
2023/10/18 00:16:00;;;;;;;11.70;8.23;;;;;;;21.68;47.86;98585.31;2075184;28;20581;-64
2023/10/18 00:17:03;;;;;;;10.18;8.65;;;;;;;21.66;47.88;98590.09;2077573;28;20508;-64
2023/10/18 00:18:05;;;;;;;11.40;8.85;;;;;;;21.67;47.99;98578.25;2076936;28;20096;-65
2023/10/18 00:19:06;;;;;;;12.55;8.25;;;;;;;21.65;48.02;98581.19;2074493;28;20053;-65
2023/10/18 00:20:13;;;;;;;12.98;8.65;;;;;;;21.67;47.71;98589.03;2077073;28;20053;-64
2023/10/18 00:21:16;;;;;;;13.27;9.13;;;;;;;21.66;47.97;98579.31;2077079;28;20060;-64
2023/10/18 00:22:17;;;;;;;12.82;9.00;;;;;;;21.66;47.73;98584.72;2075870;28;20133;-64
2023/10/18 00:23:17;;;;;;;14.15;9.35;;;;;;;21.66;47.86;98584.72;2074170;28;20802;-64
2023/10/18 00:24:20;;;;;;;11.48;8.70;;;;;;;21.64;48.05;98574.13;2077635;28;20055;-65
2023/10/18 00:25:21;;;;;;;10.88;7.97;;;;;;;21.63;47.79;98576.00;2075680;28;20049;-65
2023/10/18 00:26:23;;;;;;;12.57;8.70;;;;;;;21.62;47.78;98574.38;2075970;28;20394;-64
2023/10/18 00:27:25;;;;;;;12.73;8.90;;;;;;;21.62;48.06;98574.38;2076843;28;20057;-63
2023/10/18 00:28:27;;;;;;;12.48;9.25;;;;;;;21.63;47.93;98573.31;2075323;28;20057;-65
2023/10/18 00:29:28;;;;;;;13.30;8.63;;;;;;;21.63;47.83;98573.31;2076478;28;20057;-65
2023/10/18 00:30:30;;;;;;;12.15;9.02;;;;;;;21.63;47.74;98569.78;2075133;28;20507;-65
2023/10/18 00:31:32;;;;;;;14.77;9.85;;;;;;;21.66;47.87;98563.13;2076518;28;20687;-63
2023/10/18 00:32:34;;;;;;;13.80;8.60;;;;;;;21.63;48.03;98572.47;2074554;28;20056;-65
2023/10/18 00:33:36;;;;;;;12.20;8.45;;;;;;;21.63;47.80;98564.38;2078818;28;20075;-64
2023/10/18 00:34:36;;;;;;;10.93;7.97;;;;;;;21.62;48.08;98560.03;2076991;28;20060;-64
2023/10/18 00:35:39;;;;;;;11.90;8.32;;;;;;;21.63;47.89;98573.31;2076113;28;20049;-65
2023/10/18 00:36:40;;;;;;;11.15;8.15;;;;;;;21.63;47.73;98564.38;2075978;28;20056;-65
2023/10/18 00:37:43;;;;;;;14.10;8.50;;;;;;;21.62;47.92;98576.25;2078417;28;20063;-64
2023/10/18 00:38:44;;;;;;;12.30;8.70;;;;;;;21.62;47.73;98579.75;2077206;28;20569;-64
2023/10/18 00:39:46;;;;;;;12.50;8.77;;;;;;;21.61;47.86;98575.38;2077495;28;20064;-65
2023/10/18 00:40:50;;;;;;;11.73;8.68;;;;;;;21.61;48.07;98571.88;2079670;28;20422;-64
2023/10/18 00:41:54;;;;;;;13.82;8.75;;;;;;;21.61;47.98;98578.09;2074193;28;20059;-64
2023/10/18 00:43:04;;;;;;;13.77;8.63;;;;;;;21.61;47.89;98571.88;2080310;28;20064;-65
2023/10/18 00:44:10;;;;;;;13.20;8.80;;;;;;;21.61;48.19;98572.69;2074997;28;20053;-63
2023/10/18 00:45:11;;;;;;;11.02;8.02;;;;;;;21.62;47.89;98560.03;2078861;28;20045;-64
2023/10/18 00:46:15;;;;;;;12.48;9.00;;;;;;;21.62;47.90;98563.56;2072889;28;20056;-64
2023/10/18 00:47:16;;;;;;;11.13;8.18;;;;;;;21.62;47.89;98562.75;2076659;28;20081;-64
2023/10/18 00:48:25;;;;;;;14.40;9.35;;;;;;;21.61;48.03;98556.50;2078223;28;20137;-64
2023/10/18 00:49:27;;;;;;;11.98;7.97;;;;;;;21.60;48.10;98556.75;2077276;28;20053;-64
2023/10/18 00:50:31;;;;;;;10.30;7.70;;;;;;;21.61;48.07;98561.06;2077685;28;20217;-65
2023/10/18 00:51:33;;;;;;;11.60;8.10;;;;;;;21.59;47.77;98553.22;2077829;28;20081;-65
2023/10/18 00:52:35;;;;;;;12.27;9.10;;;;;;;21.59;47.86;98552.38;2079407;28;20107;-65
2023/10/18 00:53:37;;;;;;;12.93;9.00;;;;;;;21.58;48.05;98551.56;2071130;28;20092;-65
2023/10/18 00:54:38;;;;;;;10.27;8.43;;;;;;;21.60;47.86;98551.34;2075104;28;20057;-64
2023/10/18 00:55:39;;;;;;;11.88;8.65;;;;;;;21.58;47.91;98554.25;2077162;28;20045;-64
2023/10/18 00:56:43;;;;;;;13.02;8.45;;;;;;;21.59;47.72;98552.38;2075308;28;20053;-64
2023/10/18 00:57:44;;;;;;;11.43;7.97;;;;;;;21.59;48.00;98553.22;2078611;28;21565;-65
2023/10/18 00:58:47;;;;;;;11.07;7.72;;;;;;;21.57;47.91;98552.63;2075042;28;20086;-64
2023/10/18 00:59:49;;;;;;;10.02;8.45;;;;;;;21.58;47.87;98548.03;2074717;28;20054;-66
2023/10/18 01:00:52;;;;;;;10.82;7.78;;;;;;;21.58;48.09;98543.47;2078336;28;20049;-66
2023/10/18 01:01:58;;;;;;;10.85;8.13;;;;;;;21.58;47.92;98542.63;2078986;28;20045;-66
2023/10/18 01:02:59;;;;;;;12.80;8.43;;;;;;;21.57;47.84;98547.22;2073141;28;20773;-66
2023/10/18 01:04:05;;;;;;;12.38;8.68;;;;;;;21.57;47.91;98541.00;2079751;28;20098;-65
2023/10/18 01:05:15;;;;;;;11.68;8.52;;;;;;;21.57;48.28;98549.09;2076206;28;20144;-66
2023/10/18 01:06:21;;;;;;;12.15;8.15;;;;;;;21.55;47.90;98557.41;2076641;28;20531;-66
2023/10/18 01:07:23;;;;;;;10.57;7.97;;;;;;;21.56;48.00;98547.44;2079453;28;20056;-66
2023/10/18 01:08:24;;;;;;;10.25;7.85;;;;;;;21.57;47.87;98546.41;2075696;28;20052;-66
2023/10/18 01:09:26;;;;;;;9.30;7.90;;;;;;;21.58;48.17;98548.03;2074217;28;20084;-66
2023/10/18 01:10:30;;;;;;;11.10;8.20;;;;;;;21.55;48.09;98540.38;2077976;28;20045;-66
2023/10/18 01:11:31;;;;;;;13.13;9.55;;;;;;;21.55;48.20;98549.31;2076277;28;20099;-64
2023/10/18 01:12:34;;;;;;;11.73;7.88;;;;;;;21.56;48.01;98544.72;2079356;28;20567;-65
2023/10/18 01:13:37;;;;;;;9.75;7.18;;;;;;;21.57;47.91;98547.22;2079439;28;20155;-65
2023/10/18 01:14:39;;;;;;;13.90;8.98;;;;;;;21.57;48.14;98541.00;2076655;28;20057;-66
2023/10/18 01:15:43;;;;;;;11.63;9.20;;;;;;;21.58;48.11;98535.34;2079438;28;20049;-66
2023/10/18 01:16:45;;;;;;;10.32;7.25;;;;;;;21.57;48.04;98541.81;2079103;28;20053;-66
2023/10/18 01:17:47;;;;;;;10.82;8.35;;;;;;;21.58;47.91;98545.34;2077864;28;20045;-66
2023/10/18 01:18:51;;;;;;;10.93;8.45;;;;;;;21.56;47.84;98542.88;2076296;28;21292;-66
2023/10/18 01:19:54;;;;;;;11.80;8.45;;;;;;;21.55;48.17;98533.13;2073647;28;20053;-66
2023/10/18 01:20:56;;;;;;;11.15;7.95;;;;;;;21.55;48.13;98538.50;2077523;28;20053;-66
2023/10/18 01:21:57;;;;;;;11.25;7.60;;;;;;;21.57;48.19;98543.69;2075769;28;20140;-66
2023/10/18 01:22:59;;;;;;;10.27;8.18;;;;;;;21.56;48.09;98544.72;2076626;28;20053;-66
2023/10/18 01:24:00;;;;;;;11.93;7.50;;;;;;;21.55;47.94;98533.13;2079510;28;20061;-66
2023/10/18 01:25:04;;;;;;;11.32;7.82;;;;;;;21.56;48.17;98539.34;2078155;28;20087;-66
2023/10/18 01:26:08;;;;;;;12.60;8.63;;;;;;;21.56;48.13;98540.19;2076157;28;20140;-65
2023/10/18 01:27:12;;;;;;;13.23;8.70;;;;;;;21.55;47.92;98538.50;2075252;28;20058;-66
2023/10/18 01:28:13;;;;;;;12.10;8.13;;;;;;;21.55;47.96;98546.59;2076101;28;20577;-66
2023/10/18 01:29:14;;;;;;;12.35;9.02;;;;;;;21.56;47.76;98537.47;2077577;28;20150;-66
2023/10/18 01:30:19;;;;;;;9.85;7.78;;;;;;;21.55;48.06;98535.00;2080997;28;20739;-66
2023/10/18 01:31:20;;;;;;;11.13;7.72;;;;;;;21.55;47.95;98538.50;2073384;28;20722;-66
2023/10/18 01:32:28;;;;;;;11.70;8.75;;;;;;;21.55;48.18;98541.22;2074784;28;20057;-66
2023/10/18 01:33:31;;;;;;;9.93;7.32;;;;;;;21.54;47.97;98531.47;2078512;28;20426;-66
2023/10/18 01:34:33;;;;;;;10.60;7.38;;;;;;;21.54;48.21;98533.34;2076130;28;20053;-65
2023/10/18 01:35:35;;;;;;;12.10;7.72;;;;;;;21.55;48.14;98535.00;2073924;28;20056;-66
2023/10/18 01:36:40;;;;;;;12.60;7.63;;;;;;;21.55;47.94;98530.41;2077141;28;20041;-65
2023/10/18 01:37:43;;;;;;;9.75;7.13;;;;;;;21.56;47.86;98529.38;2076821;28;20053;-65
2023/10/18 01:38:48;;;;;;;13.63;7.93;;;;;;;21.54;47.89;98523.38;2078750;28;20049;-66
2023/10/18 01:39:52;;;;;;;10.48;8.25;;;;;;;21.55;48.05;98530.41;2079877;28;20568;-66
2023/10/18 01:40:56;;;;;;;10.75;7.45;;;;;;;21.55;47.94;98524.19;2076768;28;20057;-66
2023/10/18 01:42:00;;;;;;;12.65;8.43;;;;;;;21.55;48.02;98532.28;2080491;28;20454;-66
2023/10/18 01:43:00;;;;;;;9.75;7.63;;;;;;;21.53;47.89;98529.81;2078276;28;20426;-66
2023/10/18 01:44:06;;;;;;;10.48;7.97;;;;;;;21.54;48.13;98526.06;2073774;28;20049;-66
2023/10/18 01:45:08;;;;;;;10.82;8.00;;;;;;;21.54;48.01;98530.66;2079477;28;20053;-66
2023/10/18 01:46:13;;;;;;;12.40;8.02;;;;;;;21.54;47.77;98530.66;2075207;28;20053;-66
2023/10/18 01:47:15;;;;;;;12.18;8.25;;;;;;;21.53;48.15;98534.38;2078808;28;20056;-66
2023/10/18 01:48:18;;;;;;;10.50;7.50;;;;;;;21.52;48.27;98530.06;2076816;28;20228;-66
2023/10/18 01:49:21;;;;;;;12.27;8.10;;;;;;;21.53;48.20;98526.28;2077586;28;20582;-66
2023/10/18 01:50:22;;;;;;;13.18;7.85;;;;;;;21.52;48.28;98530.06;2077904;28;20056;-66
2023/10/18 01:51:25;;;;;;;10.35;6.85;;;;;;;21.53;47.96;98524.41;2076659;28;20049;-66
2023/10/18 01:52:29;;;;;;;12.88;7.65;;;;;;;21.53;47.98;98521.72;2071030;28;20511;-66
2023/10/18 01:53:30;;;;;;;10.73;7.50;;;;;;;21.53;47.99;98519.00;2076870;28;20053;-66
2023/10/18 01:54:32;;;;;;;11.57;7.50;;;;;;;21.54;48.11;98517.97;2076467;28;20077;-66
2023/10/18 01:55:35;;;;;;;11.05;7.80;;;;;;;21.52;47.83;98520.06;2077656;28;20099;-65
2023/10/18 01:56:38;;;;;;;11.45;7.90;;;;;;;21.51;48.07;98517.63;2076610;28;20059;-65
2023/10/18 01:57:40;;;;;;;10.95;7.90;;;;;;;21.52;47.87;98525.47;2076231;28;20614;-65
2023/10/18 01:58:41;;;;;;;12.55;8.85;;;;;;;21.52;47.84;98524.66;2079329;28;20135;-66
2023/10/18 01:59:42;;;;;;;11.93;8.00;;;;;;;21.51;48.06;98523.84;2076278;28;20428;-66
2023/10/18 02:00:44;;;;;;;11.63;7.45;;;;;;;21.53;47.90;98515.50;2076629;28;20048;-66
2023/10/18 02:01:51;;;;;;;11.10;7.97;;;;;;;21.51;48.04;98515.75;2075915;28;20052;-66
2023/10/18 02:02:52;;;;;;;11.50;7.60;;;;;;;21.50;48.20;98510.56;2074388;28;20053;-66
2023/10/18 02:03:58;;;;;;;9.32;7.22;;;;;;;21.51;47.99;98507.66;2077240;28;20131;-66
2023/10/18 02:04:59;;;;;;;9.32;7.00;;;;;;;21.49;48.22;98504.34;2078334;28;20423;-65
2023/10/18 02:06:06;;;;;;;9.25;7.63;;;;;;;21.48;48.02;98508.09;2074828;28;20053;-66
2023/10/18 02:07:07;;;;;;;9.68;7.50;;;;;;;21.48;48.06;98505.41;2078534;28;20053;-66
2023/10/18 02:08:08;;;;;;;11.32;8.07;;;;;;;21.49;48.01;98509.72;2077284;28;20053;-66
2023/10/18 02:09:12;;;;;;;9.02;6.90;;;;;;;21.49;48.06;98504.34;2076971;28;20129;-66
2023/10/18 02:10:20;;;;;;;10.77;7.70;;;;;;;21.50;48.13;98503.28;2077729;28;20045;-66
2023/10/18 02:11:22;;;;;;;10.20;7.35;;;;;;;21.48;48.24;98508.09;2075726;28;20053;-66
2023/10/18 02:12:27;;;;;;;11.93;8.27;;;;;;;21.50;48.08;98511.38;2076758;28;20516;-66
2023/10/18 02:13:29;;;;;;;9.15;7.80;;;;;;;21.52;48.12;98516.56;2076455;28;20063;-66
2023/10/18 02:14:33;;;;;;;10.65;7.18;;;;;;;21.52;48.08;98503.88;2076274;28;20136;-66
2023/10/18 02:15:35;;;;;;;10.15;7.60;;;;;;;21.51;47.90;98509.53;2075603;28;20049;-66
2023/10/18 02:16:36;;;;;;;10.15;6.97;;;;;;;21.49;48.04;98506.22;2076236;28;20057;-66
2023/10/18 02:17:39;;;;;;;10.18;7.07;;;;;;;21.48;47.93;98505.41;2073184;28;20146;-66
2023/10/18 02:18:40;;;;;;;10.48;7.22;;;;;;;21.51;48.05;98515.75;2077165;28;20057;-66
2023/10/18 02:19:43;;;;;;;12.18;8.07;;;;;;;21.51;48.12;98507.66;2078010;28;20077;-66
2023/10/18 02:20:51;;;;;;;9.10;7.25;;;;;;;21.51;48.20;98504.94;2077704;28;20125;-66
2023/10/18 02:21:54;;;;;;;10.77;7.53;;;;;;;21.51;48.27;98513.03;2074927;28;20045;-66
2023/10/18 02:22:59;;;;;;;9.95;7.75;;;;;;;21.49;48.08;98506.22;2076398;28;24820;-66
2023/10/18 02:24:01;;;;;;;11.77;7.80;;;;;;;21.48;48.19;98505.41;2076557;28;21387;-66
2023/10/18 02:25:02;;;;;;;9.60;7.50;;;;;;;21.48;48.02;98501.84;2075593;28;20053;-66
2023/10/18 02:26:09;;;;;;;10.25;7.32;;;;;;;21.48;47.92;98508.09;2076965;28;20053;-66
2023/10/18 02:27:15;;;;;;;12.32;7.85;;;;;;;21.48;48.08;98502.69;2078622;28;20099;-66
2023/10/18 02:28:27;;;;;;;11.50;7.07;;;;;;;21.47;48.15;98508.31;2075398;28;20127;-66
2023/10/18 02:29:28;;;;;;;11.88;8.85;;;;;;;21.46;48.09;98507.50;2075469;28;20520;-66
2023/10/18 02:30:31;;;;;;;8.82;7.13;;;;;;;21.47;48.23;98505.59;2075054;28;20045;-66
2023/10/18 02:31:34;;;;;;;9.80;6.50;;;;;;;21.48;48.19;98502.69;2070908;28;20087;-66
2023/10/18 02:32:34;;;;;;;11.23;7.95;;;;;;;21.49;48.04;98498.13;2076574;28;20094;-66
2023/10/18 02:33:38;;;;;;;10.38;7.53;;;;;;;21.51;48.08;98504.13;2073876;28;20098;-66
2023/10/18 02:34:39;;;;;;;9.65;6.55;;;;;;;21.49;48.20;98501.63;2076495;28;20073;-66
2023/10/18 02:35:43;;;;;;;11.57;8.20;;;;;;;21.49;48.26;98504.34;2074518;28;21421;-66
2023/10/18 02:36:47;;;;;;;10.43;7.15;;;;;;;21.48;48.26;98502.69;2077096;28;20052;-66
2023/10/18 02:37:51;;;;;;;11.15;7.13;;;;;;;21.46;47.95;98504.78;2075804;28;20045;-66
2023/10/18 02:38:53;;;;;;;9.15;7.10;;;;;;;21.49;48.12;98503.53;2075278;28;20053;-66
2023/10/18 02:40:07;;;;;;;10.77;6.85;;;;;;;21.48;48.01;98502.69;2078906;28;20041;-66
2023/10/18 02:41:20;;;;;;;11.15;7.88;;;;;;;21.45;48.08;98497.72;2075465;28;20048;-65
2023/10/18 02:42:24;;;;;;;9.88;7.20;;;;;;;21.44;48.18;98492.56;2076482;28;20093;-66
2023/10/18 02:43:29;;;;;;;10.05;6.28;;;;;;;21.44;48.09;98501.50;2076215;28;20061;-67
2023/10/18 02:44:31;;;;;;;9.30;7.35;;;;;;;21.46;47.89;98493.19;2076995;28;22290;-66
2023/10/18 02:45:32;;;;;;;8.70;7.25;;;;;;;21.45;48.04;98492.34;2075051;28;20088;-65
2023/10/18 02:46:34;;;;;;;8.77;6.70;;;;;;;21.45;48.15;98495.03;2073401;28;20057;-65
2023/10/18 02:47:35;;;;;;;9.88;6.47;;;;;;;21.45;48.30;98495.03;2078160;28;20067;-66
2023/10/18 02:48:37;;;;;;;9.18;7.15;;;;;;;21.47;48.28;98494.81;2074492;28;20057;-66
2023/10/18 02:49:38;;;;;;;8.32;7.30;;;;;;;21.45;48.21;98489.63;2075925;28;20565;-66
2023/10/18 02:50:40;;;;;;;10.38;7.78;;;;;;;21.46;48.19;98495.88;2076278;28;20068;-66
2023/10/18 02:51:43;;;;;;;11.15;7.93;;;;;;;21.47;47.95;98498.34;2077551;28;20065;-66
2023/10/18 02:52:46;;;;;;;9.00;6.55;;;;;;;21.48;47.99;98491.91;2078287;28;20573;-66
2023/10/18 02:53:47;;;;;;;10.98;6.82;;;;;;;21.48;47.98;98493.75;2074694;28;20077;-66
2023/10/18 02:54:49;;;;;;;9.50;7.03;;;;;;;21.46;47.96;98496.69;2073865;28;20061;-66
2023/10/18 02:55:55;;;;;;;10.73;7.88;;;;;;;21.48;47.87;98496.47;2074741;28;20105;-66
2023/10/18 02:56:59;;;;;;;8.98;7.22;;;;;;;21.47;47.93;98494.81;2075202;28;20049;-66
2023/10/18 02:58:00;;;;;;;9.07;7.00;;;;;;;21.47;48.25;98498.34;2075767;28;20091;-66
2023/10/18 02:59:07;;;;;;;10.40;7.25;;;;;;;21.47;48.09;98492.94;2080660;28;20067;-66
2023/10/18 03:00:10;;;;;;;9.70;6.82;;;;;;;21.45;47.92;98494.22;2076594;28;20053;-65
2023/10/18 03:01:14;;;;;;;10.48;7.18;;;;;;;21.45;48.29;98500.44;2073916;28;20135;-66
2023/10/18 03:02:15;;;;;;;11.13;7.53;;;;;;;21.46;48.02;98494.00;2078695;28;20052;-66
2023/10/18 03:03:21;;;;;;;12.25;7.82;;;;;;;21.47;48.22;98494.81;2074885;28;20041;-66
2023/10/18 03:04:23;;;;;;;8.57;6.80;;;;;;;21.45;48.00;98494.22;2072678;28;20147;-66
2023/10/18 03:05:25;;;;;;;10.27;7.28;;;;;;;21.44;48.09;98490.69;2074623;28;20139;-66
2023/10/18 03:06:28;;;;;;;10.57;7.18;;;;;;;21.45;48.33;98492.34;2075790;28;20045;-66
2023/10/18 03:07:30;;;;;;;10.73;7.00;;;;;;;21.44;48.17;98496.09;2076278;28;20053;-66
2023/10/18 03:08:31;;;;;;;10.77;6.78;;;;;;;21.46;48.07;98493.19;2075089;28;20045;-66
2023/10/18 03:09:38;;;;;;;11.15;7.70;;;;;;;21.46;48.17;98490.47;2073854;28;20213;-65
2023/10/18 03:10:47;;;;;;;9.88;7.28;;;;;;;21.45;48.03;98486.94;2076978;28;20609;-66
2023/10/18 03:11:47;;;;;;;9.48;7.45;;;;;;;21.45;47.99;98492.34;2079229;28;20080;-66
2023/10/18 03:12:49;;;;;;;8.23;6.45;;;;;;;21.44;48.01;98484.47;2074674;28;20079;-66
2023/10/18 03:13:51;;;;;;;10.35;7.25;;;;;;;21.45;48.29;98491.50;2076011;28;20080;-66
2023/10/18 03:14:55;;;;;;;10.60;6.75;;;;;;;21.44;48.08;98490.69;2076215;28;20045;-66
2023/10/18 03:16:04;;;;;;;8.55;6.38;;;;;;;21.44;48.12;98488.00;2078027;28;20784;-66
2023/10/18 03:17:15;;;;;;;10.50;6.68;;;;;;;21.42;48.18;98490.94;2081071;28;20069;-66
2023/10/18 03:18:17;;;;;;;9.73;6.55;;;;;;;21.42;48.25;98487.38;2075181;28;20088;-66
2023/10/18 03:19:19;;;;;;;9.30;6.60;;;;;;;21.45;48.07;98486.13;2073724;28;21533;-66
2023/10/18 03:20:22;;;;;;;8.25;6.25;;;;;;;21.42;48.10;98488.25;2075758;28;20507;-66
2023/10/18 03:21:25;;;;;;;8.25;7.30;;;;;;;21.44;48.16;98484.47;2074654;28;20038;-66
2023/10/18 03:22:30;;;;;;;9.27;6.55;;;;;;;21.43;48.18;98480.97;2073469;28;20056;-66
2023/10/18 03:23:43;;;;;;;8.55;6.70;;;;;;;21.43;48.27;98489.06;2076644;28;20114;-65
2023/10/18 03:24:44;;;;;;;8.68;6.80;;;;;;;21.42;48.05;98487.38;2081756;28;20503;-66
2023/10/18 03:25:46;;;;;;;9.90;6.93;;;;;;;21.42;48.11;98487.38;2075547;28;20141;-66
2023/10/18 03:26:47;;;;;;;8.30;6.72;;;;;;;21.42;48.07;98482.00;2076424;28;20504;-66
2023/10/18 03:27:51;;;;;;;9.57;7.45;;;;;;;21.42;48.15;98485.53;2076486;28;20080;-66
2023/10/18 03:29:05;;;;;;;9.43;6.40;;;;;;;21.42;48.19;98482.84;2076269;28;20053;-66
2023/10/18 03:30:17;;;;;;;8.98;7.15;;;;;;;21.43;48.30;98480.97;2078800;28;20064;-66
2023/10/18 03:31:21;;;;;;;10.60;7.28;;;;;;;21.41;48.03;98483.06;2074977;28;20057;-66
2023/10/18 03:32:24;;;;;;;8.45;7.00;;;;;;;21.39;48.15;98485.16;2076813;28;20056;-64
2023/10/18 03:33:28;;;;;;;10.00;6.90;;;;;;;21.42;48.05;98482.00;2076669;28;20068;-66
2023/10/18 03:34:30;;;;;;;8.50;6.30;;;;;;;21.41;48.34;98483.88;2077882;28;20167;-66
2023/10/18 03:35:31;;;;;;;9.45;6.88;;;;;;;21.39;48.67;98488.66;2080386;28;20049;-66
2023/10/18 03:36:33;;;;;;;9.68;7.50;;;;;;;21.42;48.30;98492.78;2079664;28;20525;-66
2023/10/18 03:37:36;;;;;;;8.25;5.85;;;;;;;21.40;48.05;98487.63;2077846;28;20049;-66
2023/10/18 03:38:41;;;;;;;9.93;6.40;;;;;;;21.41;48.14;98485.75;2072550;28;20061;-66
2023/10/18 03:39:45;;;;;;;10.57;7.20;;;;;;;21.40;48.04;98484.94;2077635;28;20061;-66
2023/10/18 03:40:48;;;;;;;8.57;6.95;;;;;;;21.40;48.03;98484.13;2076254;28;20057;-65
2023/10/18 03:41:50;;;;;;;8.55;6.90;;;;;;;21.41;48.29;98483.88;2077186;28;20094;-66
2023/10/18 03:42:52;;;;;;;9.10;7.25;;;;;;;21.39;48.31;98480.56;2077117;28;20602;-66
2023/10/18 03:44:06;;;;;;;9.75;6.75;;;;;;;21.39;48.09;98483.25;2075772;28;20060;-65
2023/10/18 03:45:10;;;;;;;8.40;6.35;;;;;;;21.39;48.24;98477.06;2076642;28;20180;-66
2023/10/18 03:46:18;;;;;;;6.50;5.88;;;;;;;21.37;48.08;98480.00;2080044;28;20045;-66
2023/10/18 03:47:24;;;;;;;8.57;7.07;;;;;;;21.38;48.29;98484.31;2078442;28;20053;-66
2023/10/18 03:48:26;;;;;;;11.50;7.18;;;;;;;21.38;48.23;98478.09;2077806;28;20169;-66
2023/10/18 03:49:33;;;;;;;10.63;6.93;;;;;;;21.38;48.32;98472.72;2081001;28;20055;-66
2023/10/18 03:50:40;;;;;;;8.02;5.95;;;;;;;21.38;48.06;98476.22;2079853;28;20465;-65
2023/10/18 03:51:41;;;;;;;11.25;6.57;;;;;;;21.37;48.29;98489.97;2077849;28;20056;-65
2023/10/18 03:52:45;;;;;;;8.30;6.93;;;;;;;21.38;48.32;98481.63;2076410;28;20056;-66
2023/10/18 03:53:52;;;;;;;8.68;6.30;;;;;;;21.38;48.19;98480.81;2074953;28;20057;-66
2023/10/18 03:55:10;;;;;;;8.38;6.03;;;;;;;21.36;48.25;98480.16;2082025;28;20476;-66
2023/10/18 03:56:13;;;;;;;8.30;6.22;;;;;;;21.35;48.13;98478.53;2077574;28;20098;-66
2023/10/18 03:57:18;;;;;;;8.20;6.38;;;;;;;21.36;48.15;98475.59;2077465;28;20051;-66
2023/10/18 03:58:24;;;;;;;7.38;6.40;;;;;;;21.38;48.18;98475.41;2075357;28;20050;-65
2023/10/18 03:59:26;;;;;;;8.25;5.75;;;;;;;21.36;48.17;98472.91;2077104;28;20064;-66
2023/10/18 04:00:36;;;;;;;9.30;6.53;;;;;;;21.37;48.24;98468.38;2075094;28;20060;-66
2023/10/18 04:01:41;;;;;;;11.37;7.17;;;;;;;21.34;48.27;98472.31;2076727;28;20129;-66
2023/10/18 04:02:45;;;;;;;7.85;5.60;;;;;;;21.38;48.46;98472.72;2080384;28;20315;-66
2023/10/18 04:03:46;;;;;;;8.35;6.00;;;;;;;21.36;48.43;98463.97;2081587;28;20046;-66
2023/10/18 04:04:49;;;;;;;8.48;6.25;;;;;;;21.37;48.21;98473.78;2078371;28;20160;-66
2023/10/18 04:05:50;;;;;;;9.05;6.28;;;;;;;21.35;48.24;98468.56;2078919;28;20046;-65
2023/10/18 04:06:58;;;;;;;9.57;6.15;;;;;;;21.36;48.34;98475.59;2077342;28;20132;-66
2023/10/18 04:07:59;;;;;;;7.32;5.95;;;;;;;21.33;48.29;98467.94;2076962;28;20049;-66
2023/10/18 04:09:13;;;;;;;7.70;6.68;;;;;;;21.34;48.27;98466.06;2079008;28;21824;-66
2023/10/18 04:10:17;;;;;;;8.57;7.13;;;;;;;21.34;48.43;98466.06;2077502;28;20057;-66
2023/10/18 04:11:26;;;;;;;7.72;6.60;;;;;;;21.34;48.19;98460.69;2080924;28;20075;-66
2023/10/18 04:12:27;;;;;;;9.27;6.68;;;;;;;21.34;48.45;98456.13;2077006;28;20064;-66
2023/10/18 04:13:31;;;;;;;8.75;5.95;;;;;;;21.35;48.44;98462.34;2077500;28;20110;-66
2023/10/18 04:14:33;;;;;;;6.50;5.68;;;;;;;21.35;48.09;98457.78;2078419;28;20041;-65
2023/10/18 04:15:37;;;;;;;7.82;6.20;;;;;;;21.35;48.20;98456.94;2079849;28;20073;-66
2023/10/18 04:16:40;;;;;;;8.80;6.15;;;;;;;21.36;48.20;98450.50;2075444;28;20053;-66
2023/10/18 04:17:42;;;;;;;7.15;5.55;;;;;;;21.33;48.44;98445.56;2079172;28;20041;-66
2023/10/18 04:18:43;;;;;;;8.63;7.03;;;;;;;21.36;48.33;98453.19;2081046;28;20772;-65
2023/10/18 04:19:44;;;;;;;8.57;6.50;;;;;;;21.36;48.29;98451.31;2075270;28;20500;-66
2023/10/18 04:20:47;;;;;;;;;;;;;;;21.24;48.57;98449.63;2079357;28;20537;-66
2023/10/18 04:21:53;;;;;;;8.60;6.32;;;;;;;21.27;48.39;98459.94;2077248;28;20032;-66
2023/10/18 04:22:53;;;;;;;9.23;6.50;;;;;;;21.31;48.20;98448.50;2077566;28;20053;-66
2023/10/18 04:23:57;;;;;;;8.88;6.13;;;;;;;21.33;48.30;98456.34;2076413;28;20053;-66
2023/10/18 04:24:58;;;;;;;6.72;5.45;;;;;;;21.33;48.35;98449.06;2079170;28;20136;-66
2023/10/18 04:26:00;;;;;;;6.63;5.60;;;;;;;21.33;48.43;98453.66;2078474;28;20429;-66
2023/10/18 04:27:04;;;;;;;8.82;6.63;;;;;;;21.33;48.27;98456.34;2075965;28;20065;-66
2023/10/18 04:28:06;;;;;;;9.02;7.05;;;;;;;21.33;48.46;98450.94;2076908;28;20587;-66
2023/10/18 04:29:18;;;;;;;8.05;5.60;;;;;;;21.34;48.24;98458.84;2076755;28;20697;-66
2023/10/18 04:30:22;;;;;;;7.57;6.15;;;;;;;21.32;48.43;98449.31;2075227;28;20053;-65
2023/10/18 04:31:27;;;;;;;8.13;6.30;;;;;;;21.33;48.20;98446.38;2079240;28;20052;-66
2023/10/18 04:32:27;;;;;;;7.22;5.63;;;;;;;21.32;48.09;98443.91;2075363;28;20045;-66
2023/10/18 04:33:35;;;;;;;5.85;5.35;;;;;;;21.34;48.38;98441.78;2078072;28;20599;-65
2023/10/18 04:34:35;;;;;;;7.63;5.93;;;;;;;21.33;48.28;98446.38;2077583;28;20048;-65
2023/10/18 04:35:44;;;;;;;8.05;5.88;;;;;;;21.32;48.14;98444.72;2074949;28;20073;-66
2023/10/18 04:36:45;;;;;;;8.93;5.75;;;;;;;21.31;48.08;98445.78;2076551;28;20089;-65
2023/10/18 04:37:48;;;;;;;7.47;6.20;;;;;;;21.32;48.31;98446.63;2075705;28;20503;-66
2023/10/18 04:38:49;;;;;;;9.35;5.32;;;;;;;21.32;48.49;98441.22;2075644;28;20076;-66
2023/10/18 04:39:52;;;;;;;9.35;6.88;;;;;;;21.32;48.25;98443.91;2076423;28;20119;-66
2023/10/18 04:40:55;;;;;;;8.07;5.55;;;;;;;21.31;48.47;98445.78;2074900;28;20041;-66
2023/10/18 04:41:57;;;;;;;9.60;6.60;;;;;;;21.32;48.58;98436.63;2075875;28;20535;-66
2023/10/18 04:43:00;;;;;;;7.88;5.72;;;;;;;21.32;48.22;98438.53;2076957;28;20523;-66
2023/10/18 04:44:05;;;;;;;8.80;6.25;;;;;;;21.32;48.51;98438.53;2077298;28;20092;-66
2023/10/18 04:45:16;;;;;;;7.55;5.72;;;;;;;21.30;48.51;98440.63;2077007;28;20040;-66
2023/10/18 04:46:18;;;;;;;;;;;;;;;21.17;48.67;98433.50;2076743;28;20056;-66
2023/10/18 04:47:31;;;;;;;8.30;6.70;;;;;;;21.21;48.51;98434.69;2077072;28;19928;-66
2023/10/18 04:48:59;;;;;;;8.82;6.35;;;;;;;21.25;48.49;98440.47;2077397;28;20053;-65
2023/10/18 04:50:04;;;;;;;6.85;5.75;;;;;;;21.25;48.63;98429.66;2078786;28;20206;-66
2023/10/18 04:51:06;;;;;;;7.18;5.30;;;;;;;21.26;48.34;98428.66;2075133;28;20060;-65
2023/10/18 04:52:07;;;;;;;7.43;5.30;;;;;;;21.26;48.41;98429.47;2078553;28;20057;-65
2023/10/18 04:53:14;;;;;;;7.70;6.20;;;;;;;21.27;48.51;98427.56;2075376;28;22018;-66
2023/10/18 04:54:17;;;;;;;7.55;5.72;;;;;;;21.30;48.54;98424.44;2073908;28;21663;-66
2023/10/18 04:55:18;;;;;;;8.75;6.60;;;;;;;21.31;48.46;98423.38;2076723;28;20072;-66
2023/10/18 04:56:19;;;;;;;8.65;6.10;;;;;;;21.30;48.36;98425.25;2076774;28;20045;-66
2023/10/18 04:57:22;;;;;;;7.47;5.82;;;;;;;21.29;48.52;98418.22;2075332;28;20100;-66
2023/10/18 04:58:23;;;;;;;7.65;6.07;;;;;;;21.29;48.55;98429.00;2077110;28;20056;-66